createdAt,value
2023-02-02T00:02:07.989Z,113.50
2023-02-02T00:04:36.779Z,90.00
2023-02-02T00:07:07.556Z,93.25
2023-02-02T00:09:34.415Z,89.75
2023-02-02T00:12:02.131Z,69.50
2023-02-02T00:14:29.081Z,48.50
2023-02-02T00:16:56.963Z,60.50
2023-02-02T00:19:27.785Z,54.00
2023-02-02T00:21:55.733Z,60.25
2023-02-02T00:24:23.067Z,53.75
2023-02-02T00:26:52.555Z,64.25
2023-02-02T00:29:31.206Z,68.50
2023-02-02T00:31:58.099Z,77.75
2023-02-02T00:34:25.566Z,74.50
2023-02-02T00:36:52.681Z,73.25
2023-02-02T00:39:23.023Z,63.25
2023-02-02T00:41:49.922Z,71.75
2023-02-02T00:44:35.588Z,106.50
2023-02-02T00:47:03.365Z,101.75
2023-02-02T00:49:30.300Z,79.25
2023-02-02T00:51:57.721Z,79.25
2023-02-02T00:54:25.199Z,92.00
2023-02-02T00:56:51.969Z,87.00
2023-02-02T00:59:18.802Z,76.25
2023-02-02T01:01:45.683Z,69.50
2023-02-02T01:04:12.580Z,72.50
2023-02-02T01:06:40.339Z,77.00
2023-02-02T01:09:08.607Z,73.25
2023-02-02T01:11:35.359Z,82.75
2023-02-02T01:14:02.143Z,81.25
2023-02-02T01:16:29.157Z,44.75
2023-02-02T01:18:55.985Z,59.75
2023-02-02T01:21:23.209Z,53.75
2023-02-02T01:23:50.472Z,54.50
2023-02-02T01:26:17.801Z,48.25
2023-02-02T01:28:45.259Z,53.75
2023-02-02T01:31:19.275Z,52.00
2023-02-02T01:33:47.472Z,55.00
2023-02-02T01:36:17.125Z,69.00
2023-02-02T01:38:44.860Z,71.50
2023-02-02T01:41:17.404Z,84.25
2023-02-02T01:43:44.199Z,82.00
2023-02-02T01:46:21.547Z,87.00
2023-02-02T01:48:58.958Z,89.00
2023-02-02T01:51:51.751Z,78.00
2023-02-02T01:54:42.083Z,81.25
2023-02-02T01:57:28.495Z,77.00
2023-02-02T01:59:59.111Z,74.25
2023-02-02T02:02:28.034Z,71.00
2023-02-02T02:04:55.785Z,49.25
2023-02-02T02:07:23.889Z,47.25
2023-02-02T02:09:50.913Z,82.00
2023-02-02T02:12:17.748Z,75.00
2023-02-02T02:15:06.496Z,77.50
2023-02-02T02:18:12.103Z,69.75
2023-02-02T02:21:12.646Z,83.00
2023-02-02T02:24:10.128Z,73.75
2023-02-02T02:26:58.529Z,69.75
2023-02-02T02:29:59.685Z,59.00
2023-02-02T02:32:55.820Z,46.00
2023-02-02T02:35:39.207Z,43.50
2023-02-02T02:38:40.267Z,48.25
2023-02-02T02:41:13.921Z,47.25
2023-02-02T02:43:45.838Z,47.50
2023-02-02T02:46:13.563Z,42.75
2023-02-02T02:48:44.778Z,51.50
2023-02-02T02:51:47.252Z,50.00
2023-02-02T02:54:26.257Z,53.25
2023-02-02T02:57:11.654Z,54.00
2023-02-02T02:59:47.441Z,55.25
2023-02-02T03:02:24.417Z,64.75
2023-02-02T03:05:14.954Z,61.25
2023-02-02T03:07:48.853Z,64.50
2023-02-02T03:10:20.965Z,60.50
2023-02-02T03:12:50.202Z,69.75
2023-02-02T03:15:18.040Z,71.50
2023-02-02T03:17:47.003Z,59.75
2023-02-02T03:20:14.049Z,68.50
2023-02-02T03:22:40.854Z,70.75
2023-02-02T03:25:07.986Z,72.50
2023-02-02T03:27:34.772Z,66.00
2023-02-02T03:30:01.718Z,65.00
2023-02-02T03:32:28.508Z,57.50
2023-02-02T03:34:55.261Z,65.25
2023-02-02T03:37:22.071Z,64.25
2023-02-02T03:39:48.814Z,66.50
2023-02-02T03:42:15.568Z,74.00
2023-02-02T03:44:42.354Z,66.75
2023-02-02T03:47:09.273Z,59.00
2023-02-02T03:49:36.142Z,65.25
2023-02-02T03:52:05.034Z,55.25
2023-02-02T03:54:31.844Z,64.25
2023-02-02T03:56:58.591Z,60.00
2023-02-02T03:59:25.460Z,58.00
2023-02-02T04:01:52.227Z,57.50
2023-02-02T04:04:19.074Z,59.25
2023-02-02T04:06:45.828Z,56.25
2023-02-02T04:09:12.665Z,55.75
2023-02-02T04:11:40.105Z,45.00
2023-02-02T04:14:07.271Z,54.00
2023-02-02T04:16:37.144Z,41.50
2023-02-02T04:19:04.792Z,43.25
2023-02-02T04:21:32.215Z,47.75
2023-02-02T04:23:59.017Z,52.75
2023-02-02T04:26:26.397Z,56.00
2023-02-02T04:28:53.799Z,53.25
2023-02-02T04:31:20.750Z,57.00
2023-02-02T04:33:47.553Z,52.00
2023-02-02T04:36:14.577Z,54.50
2023-02-02T04:38:41.340Z,53.00
2023-02-02T04:41:10.158Z,52.50
2023-02-02T04:43:39.050Z,54.75
2023-02-02T04:46:06.325Z,53.25
2023-02-02T04:48:33.361Z,56.00
2023-02-02T04:51:01.969Z,51.25
2023-02-02T04:53:29.465Z,55.50
2023-02-02T04:55:56.526Z,60.00
2023-02-02T04:58:23.506Z,60.25
2023-02-02T05:00:50.697Z,66.50
2023-02-02T05:03:17.469Z,60.00
2023-02-02T05:05:44.246Z,58.00
2023-02-02T05:08:12.091Z,56.75
2023-02-02T05:10:42.284Z,48.50
2023-02-02T05:13:09.705Z,48.75
2023-02-02T05:15:36.433Z,52.75
2023-02-02T05:18:03.291Z,48.50
2023-02-02T05:20:30.075Z,48.25
2023-02-02T05:22:56.796Z,49.00
2023-02-02T05:25:23.894Z,53.00
2023-02-02T05:27:50.853Z,49.50
2023-02-02T05:30:17.991Z,48.50
2023-02-02T05:32:44.812Z,45.75
2023-02-02T05:35:11.681Z,43.50
2023-02-02T05:37:38.549Z,52.00
2023-02-02T05:40:05.851Z,51.75
2023-02-02T05:42:32.673Z,54.75
2023-02-02T05:44:59.456Z,52.00
2023-02-02T05:47:26.220Z,54.25
2023-02-02T05:49:53.032Z,73.25
2023-02-02T05:52:24.137Z,70.25
2023-02-02T05:54:51.535Z,63.75
2023-02-02T05:57:18.431Z,61.50
2023-02-02T05:59:45.164Z,58.50
2023-02-02T06:02:11.934Z,63.25
2023-02-02T06:04:38.826Z,63.50
2023-02-02T06:07:05.558Z,51.25
2023-02-02T06:09:32.324Z,70.25
2023-02-02T06:11:59.148Z,65.00
2023-02-02T06:14:25.985Z,70.25
2023-02-02T06:16:52.852Z,66.75
2023-02-02T06:19:19.781Z,69.25
2023-02-02T06:21:46.576Z,65.00
2023-02-02T06:24:13.407Z,71.25
2023-02-02T06:26:40.397Z,67.75
2023-02-02T06:29:07.906Z,74.75
2023-02-02T06:31:34.836Z,87.75
2023-02-02T06:34:01.644Z,87.50
2023-02-02T06:36:28.626Z,116.25
2023-02-02T06:38:56.960Z,88.25
2023-02-02T06:41:24.777Z,72.00
2023-02-02T06:43:51.942Z,88.00
2023-02-02T06:46:18.975Z,93.00
2023-02-02T06:48:46.088Z,89.75
2023-02-02T06:51:12.903Z,103.00
2023-02-02T06:53:39.685Z,108.00
2023-02-02T06:56:11.686Z,95.00
2023-02-02T06:58:38.460Z,98.75
2023-02-02T07:01:10.668Z,103.75
2023-02-02T07:03:38.633Z,97.50
2023-02-02T07:06:25.806Z,103.50
2023-02-02T07:09:02.950Z,110.00
2023-02-02T07:11:38.195Z,118.50
2023-02-02T07:14:08.520Z,107.00
2023-02-02T07:16:35.681Z,105.50
2023-02-02T07:19:02.509Z,100.50
2023-02-02T07:21:35.541Z,97.25
2023-02-02T07:24:03.202Z,101.75
2023-02-02T07:26:30.081Z,127.50
2023-02-02T07:28:56.875Z,126.50
2023-02-02T07:31:26.499Z,113.00
2023-02-02T07:33:53.988Z,123.00
2023-02-02T07:36:23.926Z,126.50
2023-02-02T07:38:57.484Z,135.50
2023-02-02T07:41:24.846Z,138.50
2023-02-02T07:43:52.145Z,124.50
2023-02-02T07:46:20.357Z,124.50
2023-02-02T07:48:47.599Z,133.75
2023-02-02T07:51:16.708Z,123.00
2023-02-02T07:53:48.590Z,132.00
2023-02-02T07:56:18.404Z,129.00
2023-02-02T07:58:45.637Z,124.50
2023-02-02T08:01:14.946Z,134.75
2023-02-02T08:03:45.669Z,138.25
2023-02-02T08:06:16.378Z,137.50
2023-02-02T08:08:43.637Z,145.00
2023-02-02T08:11:12.381Z,137.75
2023-02-02T08:13:40.298Z,142.75
2023-02-02T08:16:08.376Z,145.25
2023-02-02T08:18:36.137Z,148.00
2023-02-02T08:21:04.821Z,145.50
2023-02-02T08:23:31.822Z,151.00
2023-02-02T08:26:11.048Z,119.75
2023-02-02T08:28:39.138Z,132.00
2023-02-02T08:31:20.597Z,112.75
2023-02-02T08:33:47.458Z,88.50
2023-02-02T08:36:19.344Z,83.25
2023-02-02T08:38:47.001Z,73.75
2023-02-02T08:41:16.932Z,78.75
2023-02-02T08:43:44.652Z,94.25
2023-02-02T08:46:14.472Z,102.50
2023-02-02T08:48:41.570Z,80.50
2023-02-02T08:51:12.016Z,87.75
2023-02-02T08:53:39.001Z,84.75
2023-02-02T08:56:07.687Z,76.00
2023-02-02T08:58:35.003Z,81.75
2023-02-02T09:01:12.741Z,79.00
2023-02-02T09:03:40.438Z,56.25
2023-02-02T09:06:09.501Z,57.00
2023-02-02T09:08:36.683Z,63.00
2023-02-02T09:11:08.647Z,51.75
2023-02-02T09:13:36.665Z,66.00
2023-02-02T09:16:05.136Z,63.00
2023-02-02T09:18:32.548Z,67.25
2023-02-02T09:21:01.236Z,62.00
2023-02-02T09:23:32.599Z,61.25
2023-02-02T09:26:10.516Z,67.75
2023-02-02T09:28:39.523Z,82.25
2023-02-02T09:31:06.841Z,60.75
2023-02-02T09:33:34.235Z,54.00
2023-02-02T09:36:09.213Z,46.50
2023-02-02T09:38:36.892Z,45.25
2023-02-02T09:41:27.834Z,53.00
2023-02-02T09:44:06.228Z,50.75
2023-02-02T09:46:47.979Z,51.00
2023-02-02T09:49:23.258Z,56.75
2023-02-02T09:51:58.199Z,47.00
2023-02-02T09:54:33.097Z,51.75
2023-02-02T09:57:03.206Z,43.25
2023-02-02T09:59:36.037Z,46.00
2023-02-02T10:02:32.417Z,56.25
2023-02-02T10:05:09.459Z,51.25
2023-02-02T10:07:41.612Z,56.50
2023-02-02T10:10:40.236Z,64.50
2023-02-02T10:13:16.227Z,45.00
2023-02-02T10:15:50.863Z,62.75
2023-02-02T10:18:37.285Z,31.25
2023-02-02T10:21:10.863Z,10.25
2023-02-02T10:23:44.330Z,16.75
2023-02-02T10:26:23.529Z,11.00
2023-02-02T10:29:05.646Z,26.00
2023-02-02T10:31:32.419Z,32.00
2023-02-02T10:34:15.323Z,30.50
2023-02-02T10:37:20.024Z,32.25
2023-02-02T10:40:03.893Z,26.25
2023-02-02T10:42:39.414Z,17.33
2023-02-02T10:45:19.300Z,24.67
2023-02-02T10:47:46.157Z,18.00
2023-02-02T10:50:12.801Z,13.67
2023-02-02T10:52:56.628Z,25.00
2023-02-02T10:55:41.551Z,19.00
2023-02-02T10:58:14.186Z,18.00
2023-02-02T11:00:53.145Z,21.67
2023-02-02T11:03:27.523Z,24.50
2023-02-02T11:06:13.352Z,25.75
2023-02-02T11:08:44.849Z,20.33
2023-02-02T11:11:17.524Z,24.50
2023-02-02T11:13:50.141Z,23.25
2023-02-02T11:16:17.117Z,26.25
2023-02-02T11:18:45.460Z,25.00
2023-02-02T11:21:29.597Z,27.00
2023-02-02T11:24:03.404Z,29.00
2023-02-02T11:26:50.964Z,22.25
2023-02-02T11:29:43.442Z,29.50
2023-02-02T11:32:25.237Z,25.50
2023-02-02T11:35:04.136Z,23.75
2023-02-02T11:37:32.657Z,23.75
2023-02-02T11:40:22.810Z,23.25
2023-02-02T11:42:51.776Z,27.50
2023-02-02T11:45:27.152Z,17.25
2023-02-02T11:47:54.033Z,28.00
2023-02-02T11:50:27.567Z,23.00
2023-02-02T11:52:55.454Z,13.25
2023-02-02T11:55:30.018Z,24.50
2023-02-02T11:58:27.711Z,15.75
2023-02-02T12:01:06.376Z,25.00
2023-02-02T12:03:38.993Z,30.00
2023-02-02T12:06:35.700Z,24.25
2023-02-02T12:09:12.280Z,27.00
2023-02-02T12:12:02.854Z,24.75
2023-02-02T12:14:41.343Z,25.00
2023-02-02T12:17:22.316Z,18.25
2023-02-02T12:20:07.681Z,23.75
2023-02-02T12:22:52.835Z,23.25
2023-02-02T12:25:41.489Z,20.00
2023-02-02T12:28:44.997Z,23.00
2023-02-02T12:31:17.525Z,22.75
2023-02-02T12:33:57.642Z,21.50
2023-02-02T12:36:42.236Z,22.25
2023-02-02T12:39:22.455Z,21.50
2023-02-02T12:42:01.050Z,23.00
2023-02-02T12:44:42.623Z,17.25
2023-02-02T12:47:27.701Z,30.00
2023-02-02T12:50:12.206Z,16.25
2023-02-02T12:52:53.750Z,22.00
2023-02-02T12:55:26.571Z,23.75
2023-02-02T12:58:02.123Z,18.25
2023-02-02T13:00:44.127Z,15.75
2023-02-02T13:03:23.184Z,20.50
2023-02-02T13:06:19.361Z,20.25
2023-02-02T13:08:58.209Z,21.75
2023-02-02T13:11:39.364Z,23.75
2023-02-02T13:14:13.067Z,17.00
2023-02-02T13:16:48.523Z,21.00
2023-02-02T13:19:26.536Z,20.25
2023-02-02T13:21:58.018Z,23.00
2023-02-02T13:24:31.229Z,17.50
2023-02-02T13:27:01.705Z,22.50
2023-02-02T13:29:47.912Z,23.00
2023-02-02T13:32:29.091Z,23.00
2023-02-02T13:35:28.750Z,21.25
2023-02-02T13:38:23.030Z,26.25
2023-02-02T13:40:53.197Z,31.75
2023-02-02T13:43:26.169Z,16.33
2023-02-02T13:46:17.776Z,24.00
2023-02-02T13:49:02.482Z,26.00
2023-02-02T13:51:35.121Z,13.75
2023-02-02T13:54:33.380Z,13.67
2023-02-02T13:57:37.443Z,16.25
2023-02-02T14:00:25.132Z,21.00
2023-02-02T14:02:58.105Z,23.25
2023-02-02T14:05:31.953Z,26.00
2023-02-02T14:08:07.329Z,29.75
2023-02-02T14:10:38.062Z,25.75
2023-02-02T14:13:54.479Z,30.00
2023-02-02T14:16:41.660Z,25.25
2023-02-02T14:19:31.187Z,27.00
2023-02-02T14:22:11.968Z,24.00
2023-02-02T14:24:40.705Z,24.00
2023-02-02T14:27:07.449Z,24.25
2023-02-02T14:29:36.721Z,22.75
2023-02-02T14:32:11.628Z,21.75
2023-02-02T14:34:42.202Z,19.50
2023-02-02T14:37:24.205Z,18.00
2023-02-02T14:40:00.059Z,24.00
2023-02-02T14:43:01.817Z,23.50
2023-02-02T14:45:39.384Z,21.00
2023-02-02T14:48:20.657Z,20.75
2023-02-02T14:50:55.536Z,20.25
2023-02-02T14:53:40.376Z,12.33
2023-02-02T14:56:11.787Z,18.00
2023-02-02T14:58:45.936Z,23.00
2023-02-02T15:01:23.154Z,9.33
2023-02-02T15:04:15.898Z,15.00
2023-02-02T15:06:43.676Z,13.33
2023-02-02T15:09:23.441Z,26.50
2023-02-02T15:12:01.205Z,19.75
2023-02-02T15:14:51.372Z,17.25
2023-02-02T15:17:30.260Z,12.33
2023-02-02T15:20:06.900Z,8.67
2023-02-02T15:22:33.655Z,5.50
2023-02-02T15:25:13.816Z,10.00
2023-02-02T15:27:56.232Z,10.00
2023-02-02T15:30:24.691Z,15.00
2023-02-02T15:32:52.791Z,13.33
2023-02-02T15:35:30.178Z,13.00
2023-02-02T15:38:04.798Z,13.25
2023-02-02T15:40:32.305Z,13.00
2023-02-02T15:43:04.443Z,11.33
2023-02-02T15:45:43.413Z,8.00
2023-02-02T15:48:20.814Z,12.00
2023-02-02T15:50:51.258Z,24.00
2023-02-02T15:53:20.696Z,24.25
2023-02-02T15:55:47.716Z,14.50
2023-02-02T15:58:32.795Z,12.25
2023-02-02T16:01:14.497Z,37.00
2023-02-02T16:04:08.206Z,39.25
2023-02-02T16:06:35.535Z,35.75
2023-02-02T16:09:04.689Z,34.75
2023-02-02T16:11:31.741Z,35.00
2023-02-02T16:14:04.163Z,35.00
2023-02-02T16:16:36.247Z,31.75
2023-02-02T16:19:19.970Z,26.00
2023-02-02T16:22:03.313Z,19.50
2023-02-02T16:24:33.988Z,27.00
2023-02-02T16:27:04.210Z,26.00
2023-02-02T16:29:31.372Z,26.00
2023-02-02T16:31:58.497Z,19.25
2023-02-02T16:34:40.879Z,11.00
2023-02-02T16:37:12.579Z,30.75
2023-02-02T16:39:39.433Z,24.25
2023-02-02T16:42:10.950Z,24.00
2023-02-02T16:44:39.314Z,24.00
2023-02-02T16:47:08.740Z,22.75
2023-02-02T16:49:36.623Z,20.00
2023-02-02T16:52:18.202Z,24.00
2023-02-02T16:54:56.110Z,11.00
2023-02-02T16:57:34.342Z,33.00
2023-02-02T17:00:06.333Z,45.50
2023-02-02T17:02:40.759Z,73.00
2023-02-02T17:05:29.664Z,39.50
2023-02-02T17:08:05.654Z,32.75
2023-02-02T17:10:36.442Z,7.00
2023-02-02T17:13:23.849Z,12.25
2023-02-02T17:15:53.650Z,12.75
2023-02-02T17:18:20.496Z,11.25
2023-02-02T17:20:49.730Z,23.50
2023-02-02T17:23:18.480Z,13.75
2023-02-02T17:25:47.872Z,13.25
2023-02-02T17:28:18.615Z,9.50
2023-02-02T17:30:48.713Z,20.25
2023-02-02T17:33:18.087Z,18.00
2023-02-02T17:35:55.735Z,14.25
2023-02-02T17:38:24.692Z,32.75
2023-02-02T17:40:52.918Z,29.00
2023-02-02T17:43:19.830Z,30.75
2023-02-02T17:45:46.705Z,149.75
2023-02-02T17:48:14.191Z,63.00
2023-02-02T17:50:42.228Z,31.25
2023-02-02T17:53:14.756Z,54.00
2023-02-02T17:55:43.309Z,41.75
2023-02-02T17:58:13.302Z,43.25
2023-02-02T18:00:41.276Z,43.75
2023-02-02T18:03:19.945Z,74.75
2023-02-02T18:05:47.278Z,96.50
2023-02-02T18:08:14.519Z,84.25
2023-02-02T18:10:42.384Z,59.50
2023-02-02T18:13:15.983Z,73.00
2023-02-02T18:15:43.606Z,23.00
2023-02-02T18:18:12.452Z,7.50
2023-02-02T18:20:46.979Z,47.25
2023-02-02T18:23:14.392Z,45.50
2023-02-02T18:25:41.404Z,39.50
2023-02-02T18:28:08.988Z,13.00
2023-02-02T18:30:38.824Z,30.75
2023-02-02T18:33:08.788Z,29.00
2023-02-02T18:35:36.767Z,38.50
2023-02-02T18:38:03.480Z,37.00
2023-02-02T18:40:30.230Z,20.50
2023-02-02T18:42:57.037Z,43.25
2023-02-02T18:45:24.354Z,28.25
2023-02-02T18:47:51.345Z,27.00
2023-02-02T18:50:18.439Z,29.00
2023-02-02T18:52:45.213Z,39.50
2023-02-02T18:55:11.975Z,12.75
2023-02-02T18:57:38.819Z,34.50
2023-02-02T19:00:06.202Z,17.00
2023-02-02T19:02:33.044Z,24.75
2023-02-02T19:05:18.626Z,23.00
2023-02-02T19:07:54.577Z,15.50
2023-02-02T19:10:22.722Z,30.25
2023-02-02T19:13:03.636Z,20.00
2023-02-02T19:15:34.175Z,28.00
2023-02-02T19:18:01.290Z,28.50
2023-02-02T19:20:30.344Z,29.75
2023-02-02T19:23:07.091Z,23.75
2023-02-02T19:25:33.936Z,36.75
2023-02-02T19:28:09.109Z,37.50
2023-02-02T19:30:36.079Z,51.50
2023-02-02T19:33:02.851Z,43.00
2023-02-02T19:35:32.423Z,44.50
2023-02-02T19:38:01.855Z,41.25
2023-02-02T19:40:28.950Z,33.50
2023-02-02T19:43:08.232Z,33.00
2023-02-02T19:45:35.846Z,23.50
2023-02-02T19:48:14.093Z,32.25
2023-02-02T19:50:41.890Z,25.75
2023-02-02T19:53:23.276Z,25.50
2023-02-02T19:55:52.364Z,34.50
2023-02-02T19:58:22.174Z,38.00
2023-02-02T20:00:53.972Z,70.75
2023-02-02T20:03:24.294Z,28.00
2023-02-02T20:05:52.587Z,37.00
2023-02-02T20:08:26.883Z,42.75
2023-02-02T20:10:55.964Z,48.50
2023-02-02T20:13:35.670Z,48.00
2023-02-02T20:16:08.145Z,49.75
2023-02-02T20:18:49.433Z,68.00
2023-02-02T20:21:24.541Z,66.75
2023-02-02T20:23:51.455Z,52.75
2023-02-02T20:26:33.519Z,44.00
2023-02-02T20:29:13.824Z,42.25
2023-02-02T20:31:40.917Z,41.75
2023-02-02T20:34:29.612Z,46.50
2023-02-02T20:37:15.648Z,41.00
2023-02-02T20:40:02.434Z,44.00
2023-02-02T20:42:29.481Z,46.50
2023-02-02T20:44:58.212Z,42.50
2023-02-02T20:47:25.124Z,42.75
2023-02-02T20:49:51.889Z,42.25
2023-02-02T20:52:24.020Z,52.25
2023-02-02T20:54:52.844Z,55.25
2023-02-02T20:57:19.572Z,59.50
2023-02-02T20:59:46.426Z,58.25
2023-02-02T21:02:22.900Z,60.50
2023-02-02T21:04:51.272Z,67.75
2023-02-02T21:07:20.852Z,69.50
2023-02-02T21:09:50.004Z,61.75
2023-02-02T21:12:17.942Z,62.75
2023-02-02T21:14:47.554Z,46.25
2023-02-02T21:17:15.937Z,47.00
2023-02-02T21:19:44.062Z,33.75
2023-02-02T21:22:11.697Z,34.25
2023-02-02T21:24:38.734Z,36.00
2023-02-02T21:27:05.560Z,34.25
2023-02-02T21:29:32.823Z,33.00
2023-02-02T21:32:02.528Z,28.00
2023-02-02T21:34:30.883Z,32.75
2023-02-02T21:36:58.567Z,35.00
2023-02-02T21:39:35.152Z,37.00
2023-02-02T21:42:07.930Z,33.25
2023-02-02T21:44:36.286Z,25.50
2023-02-02T21:47:03.150Z,33.25
2023-02-02T21:49:39.370Z,23.25
2023-02-02T21:52:17.866Z,20.00
2023-02-02T21:54:44.747Z,25.00
2023-02-02T21:57:21.275Z,18.50
2023-02-02T21:59:57.461Z,16.25
2023-02-02T22:02:32.844Z,15.00
2023-02-02T22:05:01.877Z,18.00
2023-02-02T22:07:31.071Z,17.00
2023-02-02T22:09:57.815Z,20.50
2023-02-02T22:12:27.303Z,22.50
2023-02-02T22:15:00.187Z,16.00
2023-02-02T22:17:37.549Z,17.25
2023-02-02T22:20:13.295Z,20.00
2023-02-02T22:22:45.096Z,20.00
2023-02-02T22:25:17.824Z,20.00
2023-02-02T22:27:51.254Z,20.00
2023-02-02T22:30:35.173Z,16.00
2023-02-02T22:33:02.165Z,17.00
2023-02-02T22:35:29.353Z,17.00
2023-02-02T22:37:56.154Z,20.50
2023-02-02T22:40:22.896Z,26.00
2023-02-02T22:42:54.885Z,25.75
2023-02-02T22:45:22.070Z,27.25
2023-02-02T22:47:49.001Z,14.75
2023-02-02T22:50:24.864Z,17.75
2023-02-02T22:52:52.307Z,19.00
2023-02-02T22:55:20.016Z,21.75
2023-02-02T22:57:47.771Z,18.50
2023-02-02T23:00:20.613Z,15.25
2023-02-02T23:02:47.466Z,9.75
2023-02-02T23:05:16.127Z,14.75
2023-02-02T23:07:44.218Z,18.50
2023-02-02T23:10:19.066Z,16.00
2023-02-02T23:12:46.837Z,18.25
2023-02-02T23:15:15.173Z,21.75
2023-02-02T23:17:42.664Z,28.25
2023-02-02T23:20:12.388Z,26.00
2023-02-02T23:22:39.234Z,27.00
2023-02-02T23:25:06.530Z,37.50
2023-02-02T23:27:33.545Z,41.00
2023-02-02T23:30:00.285Z,40.75
2023-02-02T23:32:27.206Z,39.75
2023-02-02T23:34:53.976Z,40.50
2023-02-02T23:37:20.821Z,41.50
2023-02-02T23:39:47.679Z,35.00
2023-02-02T23:42:14.537Z,39.00
2023-02-02T23:44:41.309Z,36.25
2023-02-02T23:47:09.128Z,35.00
2023-02-02T23:49:36.604Z,31.25
2023-02-02T23:52:03.693Z,34.25
2023-02-02T23:54:31.443Z,36.25
2023-02-02T23:56:58.628Z,38.00
2023-02-02T23:59:25.505Z,34.00
